Time;durP1;ratioP1;P1;durP2;ratioP2;P2;SDS_P1;SDS_P2;PMS_P1;PMS_P2;Temp;Humidity;BMP_temperature;BMP_pressure;BME280_temperature;BME280_humidity;BME280_pressure;Samples;Min_cycle;Max_cycle;Signal;HPM_P1;HPM_P2
2023/03/19 00:01:54;;;;;;;13.52;12.18;;;16.50;80.20;;;;;;3924786;30;20067;-68
2023/03/19 00:04:35;;;;;;;12.95;11.75;;;16.40;80.20;;;;;;3917544;30;20590;-68
2023/03/19 00:07:16;;;;;;;12.90;11.65;;;16.50;80.30;;;;;;3925895;30;20227;-67
2023/03/19 00:09:58;;;;;;;13.65;12.25;;;16.50;80.30;;;;;;3926494;30;20055;-68
2023/03/19 00:12:40;;;;;;;12.60;11.43;;;16.40;80.30;;;;;;3926521;30;20054;-69
2023/03/19 00:15:21;;;;;;;13.00;11.70;;;16.40;80.20;;;;;;3905475;30;20050;-69
2023/03/19 00:18:04;;;;;;;14.38;12.05;;;16.50;80.30;;;;;;3923033;30;20123;-69
2023/03/19 00:20:45;;;;;;;13.80;12.38;;;16.40;80.40;;;;;;3912659;30;20172;-68
2023/03/19 00:23:26;;;;;;;12.98;11.68;;;16.40;80.40;;;;;;3915807;30;20206;-69
2023/03/19 00:26:06;;;;;;;14.03;12.57;;;16.40;81.30;;;;;;3918704;30;20063;-68
2023/03/19 00:28:50;;;;;;;14.23;12.82;;;16.40;80.50;;;;;;3903753;30;20121;-68
2023/03/19 00:31:32;;;;;;;13.63;12.43;;;16.40;80.60;;;;;;3904223;30;20051;-68
2023/03/19 00:34:13;;;;;;;13.93;12.63;;;16.40;80.60;;;;;;3922678;30;20106;-68
2023/03/19 00:36:55;;;;;;;14.02;12.50;;;16.40;80.70;;;;;;3918456;30;20677;-68
2023/03/19 00:39:35;;;;;;;15.00;12.77;;;16.40;80.70;;;;;;3918036;30;20105;-69
2023/03/19 00:42:16;;;;;;;13.43;12.02;;;16.40;80.80;;;;;;3929493;30;20071;-71
2023/03/19 00:44:59;;;;;;;13.68;12.30;;;16.40;80.70;;;;;;3918289;30;20055;-71
2023/03/19 00:47:41;;;;;;;13.63;12.27;;;16.40;80.80;;;;;;3918241;30;20059;-71
2023/03/19 00:50:21;;;;;;;15.00;13.50;;;16.40;80.80;;;;;;3929263;30;20417;-71
2023/03/19 00:53:02;;;;;;;12.98;11.77;;;16.40;81.80;;;;;;3914830;30;20056;-71
2023/03/19 00:55:45;;;;;;;14.20;12.80;;;16.40;81.00;;;;;;3917906;30;20070;-71
2023/03/19 00:58:25;;;;;;;14.10;12.65;;;16.30;81.10;;;;;;3907714;30;20105;-71
2023/03/19 01:01:08;;;;;;;13.73;12.10;;;16.30;81.00;;;;;;3918231;30;20071;-71
2023/03/19 01:03:49;;;;;;;13.45;11.98;;;16.30;80.90;;;;;;3918246;30;20513;-71
2023/03/19 01:06:30;;;;;;;13.82;12.27;;;16.30;81.00;;;;;;3903755;30;20210;-72
2023/03/19 01:09:11;;;;;;;24.13;12.43;;;16.30;81.10;;;;;;3914479;30;20409;-72
2023/03/19 01:11:52;;;;;;;13.10;11.82;;;16.30;81.00;;;;;;3907814;30;20298;-71
2023/03/19 01:14:33;;;;;;;;;;;16.30;81.00;;;;;;3918524;30;20108;-72
2023/03/19 01:17:15;;;;;;;13.10;11.82;;;16.30;81.00;;;;;;3925079;30;19936;-72
2023/03/19 01:19:56;;;;;;;12.40;11.15;;;16.30;81.40;;;;;;3917726;30;20466;-72
2023/03/19 01:22:37;;;;;;;13.20;11.90;;;16.30;81.20;;;;;;3918006;30;20052;-72
2023/03/19 01:25:18;;;;;;;12.83;11.57;;;16.30;81.30;;;;;;3914623;30;20212;-72
2023/03/19 01:28:08;;;;;;;16.02;12.10;;;16.30;81.20;;;;;;3918037;30;21138;-73
2023/03/19 01:30:52;;;;;;;14.25;11.80;;;16.30;81.50;;;;;;3917699;30;20404;-72
2023/03/19 01:34:04;;;;;;;11.63;10.63;;;16.30;81.40;;;;;;3915073;30;20108;-72
2023/03/19 01:36:51;;;;;;;10.85;9.85;;;16.30;81.50;;;;;;3917960;30;20060;-72
2023/03/19 01:39:38;;;;;;;12.60;11.18;;;16.30;81.40;;;;;;3917573;30;20062;-72
2023/03/19 01:42:23;;;;;;;11.18;10.13;;;16.30;81.40;;;;;;3907871;30;20516;-72
2023/03/19 01:45:38;;;;;;;12.43;10.00;;;16.30;81.40;;;;;;3917200;30;20178;-71
2023/03/19 01:48:48;;;;;;;10.95;9.85;;;16.30;81.20;;;;;;3921013;30;20463;-71
2023/03/19 01:51:37;;;;;;;11.93;10.40;;;16.30;81.50;;;;;;3917529;30;20068;-71
2023/03/19 01:54:39;;;;;;;10.88;9.82;;;16.20;81.40;;;;;;3928087;30;20059;-71
2023/03/19 01:57:30;;;;;;;11.60;10.40;;;16.30;81.70;;;;;;3917622;30;20055;-71
2023/03/19 02:00:38;;;;;;;11.30;10.10;;;16.20;81.50;;;;;;3887129;30;20064;-72
2023/03/19 02:03:19;;;;;;;11.82;10.45;;;16.20;81.60;;;;;;3902538;30;20083;-71
2023/03/19 02:06:04;;;;;;;11.05;9.98;;;16.20;81.50;;;;;;3903030;30;20063;-71
2023/03/19 02:08:48;;;;;;;12.77;10.52;;;16.20;81.50;;;;;;3916352;30;20055;-71
2023/03/19 02:11:29;;;;;;;11.32;10.32;;;16.20;81.50;;;;;;3917376;30;20051;-72
2023/03/19 02:14:12;;;;;;;;;;;16.20;81.50;;;;;;3917517;30;20082;-72
2023/03/19 02:16:54;;;;;;;12.80;10.25;;;16.20;81.50;;;;;;3900354;30;19950;-71
2023/03/19 02:19:43;;;;;;;11.88;10.68;;;16.20;81.80;;;;;;3903532;30;20051;-69
2023/03/19 02:22:27;;;;;;;11.30;10.20;;;16.20;82.60;;;;;;3916303;30;20501;-69
2023/03/19 02:25:16;;;;;;;11.05;9.95;;;16.20;81.80;;;;;;3916655;30;20504;-69
2023/03/19 02:28:01;;;;;;;12.15;10.95;;;16.20;82.00;;;;;;3917132;30;20059;-69
2023/03/19 02:30:43;;;;;;;11.10;9.95;;;16.20;82.20;;;;;;3916817;30;20059;-69
2023/03/19 02:33:24;;;;;;;11.95;10.32;;;16.20;81.90;;;;;;3915321;30;20133;-69
2023/03/19 02:36:10;;;;;;;11.55;10.52;;;16.20;82.00;;;;;;3916902;30;20059;-69
2023/03/19 02:38:52;;;;;;;10.95;9.85;;;16.20;82.10;;;;;;3916542;30;20055;-69
2023/03/19 02:41:37;;;;;;;13.57;9.43;;;16.10;82.10;;;;;;3916672;30;20413;-68
2023/03/19 02:44:19;;;;;;;8.85;8.15;;;16.20;82.10;;;;;;3926546;30;20054;-68
2023/03/19 02:47:03;;;;;;;10.18;9.20;;;16.20;82.10;;;;;;3916248;30;20199;-69
2023/03/19 02:49:43;;;;;;;9.88;8.95;;;16.20;82.10;;;;;;3925685;30;20113;-68
2023/03/19 02:52:24;;;;;;;9.80;8.57;;;16.20;82.10;;;;;;3915867;30;20054;-69
2023/03/19 02:55:08;;;;;;;10.52;8.15;;;16.20;82.20;;;;;;3926908;30;20444;-69
2023/03/19 02:57:49;;;;;;;9.23;8.25;;;16.10;82.10;;;;;;3883329;30;20113;-69
2023/03/19 03:00:31;;;;;;;8.40;7.67;;;16.10;82.10;;;;;;3924642;30;20043;-68
2023/03/19 03:03:12;;;;;;;8.32;7.53;;;16.10;82.20;;;;;;3915504;30;20063;-69
2023/03/19 03:05:53;;;;;;;9.70;7.10;;;16.10;82.20;;;;;;3926413;30;20072;-69
2023/03/19 03:08:35;;;;;;;8.60;7.35;;;16.10;82.20;;;;;;3909865;30;20067;-68
2023/03/19 03:11:16;;;;;;;8.60;7.80;;;16.10;82.20;;;;;;3915934;30;20499;-68
2023/03/19 03:13:57;;;;;;;10.88;8.20;;;16.10;82.20;;;;;;3926906;30;20058;-69
2023/03/19 03:16:39;;;;;;;9.05;8.15;;;16.10;82.30;;;;;;3927032;30;20134;-69
2023/03/19 03:19:20;;;;;;;9.65;8.45;;;16.10;82.30;;;;;;3926574;30;20169;-69
2023/03/19 03:22:01;;;;;;;8.07;7.43;;;16.10;82.40;;;;;;3921085;30;20083;-69
2023/03/19 03:24:42;;;;;;;8.75;8.02;;;16.10;83.20;;;;;;3912278;30;20409;-68
2023/03/19 03:27:22;;;;;;;8.68;7.88;;;16.10;82.40;;;;;;3926858;30;20055;-69
2023/03/19 03:30:04;;;;;;;9.73;8.73;;;16.10;82.50;;;;;;3905463;30;20059;-68
2023/03/19 03:32:48;;;;;;;8.52;7.65;;;16.10;82.50;;;;;;3915839;30;20530;-69
2023/03/19 03:35:29;;;;;;;8.13;7.32;;;16.10;82.50;;;;;;3914283;30;20074;-69
2023/03/19 03:38:11;;;;;;;9.32;8.07;;;16.10;82.50;;;;;;3905720;30;20059;-69
2023/03/19 03:40:52;;;;;;;;;;;16.10;82.50;;;;;;3925772;30;20117;-68
2023/03/19 03:43:38;;;;;;;7.97;7.18;;;16.10;82.50;;;;;;3926538;30;20414;-67
2023/03/19 03:46:18;;;;;;;9.02;7.97;;;16.10;82.80;;;;;;3911515;30;20059;-68
2023/03/19 03:49:04;;;;;;;9.15;8.25;;;16.10;82.70;;;;;;3894713;30;20524;-68
2023/03/19 03:51:45;;;;;;;9.20;8.00;;;16.10;83.60;;;;;;3900267;30;20142;-68
2023/03/19 03:54:27;;;;;;;8.55;7.72;;;16.10;82.70;;;;;;3909091;30;20059;-68
2023/03/19 03:57:08;;;;;;;11.73;7.75;;;16.10;82.80;;;;;;3902133;30;20051;-68
2023/03/19 03:59:49;;;;;;;9.13;8.23;;;16.10;82.70;;;;;;3901507;30;20063;-68
2023/03/19 04:02:31;;;;;;;8.30;7.50;;;16.10;82.70;;;;;;3915230;30;20416;-68
2023/03/19 04:05:13;;;;;;;9.20;8.30;;;16.00;82.70;;;;;;3925083;30;20063;-68
2023/03/19 04:07:54;;;;;;;8.13;7.32;;;16.00;82.70;;;;;;3905255;30;20108;-67
2023/03/19 04:10:36;;;;;;;8.05;7.35;;;16.10;82.70;;;;;;3905480;30;20116;-68
2023/03/19 04:13:17;;;;;;;9.23;8.32;;;16.00;82.70;;;;;;3922261;30;20167;-68
2023/03/19 04:15:58;;;;;;;8.70;7.57;;;16.10;82.80;;;;;;3900526;30;20051;-68
2023/03/19 04:18:40;;;;;;;9.05;8.15;;;16.00;82.70;;;;;;3900621;30;20655;-69
2023/03/19 04:21:22;;;;;;;8.57;7.88;;;16.10;82.80;;;;;;3915547;30;20063;-68
2023/03/19 04:24:03;;;;;;;9.23;8.32;;;16.10;82.80;;;;;;3921897;30;20393;-68
2023/03/19 04:26:45;;;;;;;9.30;8.18;;;16.00;82.80;;;;;;3915268;30;20067;-70
2023/03/19 04:29:27;;;;;;;8.35;7.63;;;16.00;82.80;;;;;;3915537;30;20067;-69
2023/03/19 04:32:08;;;;;;;8.75;7.90;;;16.00;82.80;;;;;;3911367;30;20063;-68
2023/03/19 04:34:49;;;;;;;;;;;16.00;82.80;;;;;;3915149;30;20062;-68
2023/03/19 04:37:31;;;;;;;8.80;7.93;;;16.00;82.80;;;;;;3926013;30;20022;-68
2023/03/19 04:40:13;;;;;;;7.82;7.05;;;16.00;83.20;;;;;;3914462;30;20062;-68
2023/03/19 04:42:55;;;;;;;7.80;7.15;;;16.00;83.00;;;;;;3905234;30;20566;-68
2023/03/19 04:45:44;;;;;;;8.50;7.60;;;16.00;83.10;;;;;;3905113;30;20059;-68
2023/03/19 04:48:25;;;;;;;8.45;7.65;;;16.00;84.00;;;;;;3914113;30;20059;-68
2023/03/19 04:51:08;;;;;;;;;;;16.00;83.10;;;;;;3911111;30;20067;-69
2023/03/19 04:53:52;;;;;;;7.40;6.70;;;16.00;83.10;;;;;;3908617;30;19933;-68
2023/03/19 04:56:32;;;;;;;8.00;7.20;;;16.00;83.30;;;;;;3915436;30;20067;-68
2023/03/19 04:59:13;;;;;;;6.77;6.23;;;16.00;83.20;;;;;;3915207;30;20071;-68
2023/03/19 05:01:54;;;;;;;6.68;6.07;;;16.00;83.20;;;;;;3915373;30;20321;-68
2023/03/19 05:04:37;;;;;;;8.82;6.25;;;16.00;83.20;;;;;;3906662;30;20406;-68
2023/03/19 05:07:22;;;;;;;6.57;6.07;;;16.00;83.30;;;;;;3901924;30;20078;-68
2023/03/19 05:10:05;;;;;;;7.60;6.82;;;16.00;83.40;;;;;;3913160;30;20079;-68
2023/03/19 05:12:46;;;;;;;7.85;6.43;;;16.00;83.30;;;;;;3917992;30;20062;-68
2023/03/19 05:15:28;;;;;;;6.80;6.07;;;16.00;83.30;;;;;;3917984;30;20059;-68
2023/03/19 05:18:16;;;;;;;6.18;5.57;;;16.00;83.20;;;;;;3917655;30;20516;-68
2023/03/19 05:20:57;;;;;;;6.22;5.72;;;16.00;83.30;;;;;;3910353;30;20056;-68
2023/03/19 05:23:39;;;;;;;7.00;6.40;;;16.00;83.20;;;;;;3903168;30;20058;-69
2023/03/19 05:26:24;;;;;;;6.55;5.90;;;16.00;83.20;;;;;;3904716;30;20571;-69
2023/03/19 05:29:26;;;;;;;6.53;5.90;;;16.00;83.10;;;;;;3913480;30;20125;-67
2023/03/19 05:32:27;;;;;;;6.50;5.85;;;16.00;83.20;;;;;;3911535;30;20096;-68
2023/03/19 05:35:10;;;;;;;8.43;5.78;;;16.00;83.20;;;;;;3892783;30;20201;-69
2023/03/19 05:37:51;;;;;;;6.80;6.03;;;16.00;83.20;;;;;;3912794;30;20047;-69
2023/03/19 05:40:33;;;;;;;6.53;5.93;;;16.00;83.20;;;;;;3916705;30;20063;-68
2023/03/19 05:43:26;;;;;;;7.18;6.47;;;15.90;83.20;;;;;;3916913;30;20074;-69
2023/03/19 05:46:09;;;;;;;6.93;6.22;;;15.90;83.10;;;;;;3922156;30;20400;-68
2023/03/19 05:48:51;;;;;;;6.50;5.47;;;16.00;83.20;;;;;;3913653;30;20056;-69
2023/03/19 05:51:32;;;;;;;6.70;6.00;;;15.90;84.00;;;;;;3902665;30;20394;-69
2023/03/19 05:54:13;;;;;;;6.65;5.97;;;15.90;83.10;;;;;;3902677;30;20134;-69
2023/03/19 05:57:17;;;;;;;6.00;5.40;;;15.90;83.00;;;;;;3912171;30;20113;-69
2023/03/19 06:00:07;;;;;;;6.47;5.82;;;15.90;83.10;;;;;;3910406;30;20055;-68
2023/03/19 06:02:48;;;;;;;5.78;5.38;;;15.90;83.10;;;;;;3922246;30;20062;-69
2023/03/19 06:05:49;;;;;;;7.60;5.60;;;15.90;83.00;;;;;;3909558;30;20063;-69
2023/03/19 06:08:41;;;;;;;6.00;5.50;;;15.90;83.00;;;;;;3893693;30;20067;-69
2023/03/19 06:11:44;;;;;;;6.30;5.70;;;15.90;83.00;;;;;;3913522;30;20063;-69
2023/03/19 06:14:51;;;;;;;5.85;5.35;;;15.90;83.00;;;;;;3892261;30;20452;-69
2023/03/19 06:17:52;;;;;;;5.70;5.20;;;15.90;83.10;;;;;;3912511;30;20059;-69
2023/03/19 06:20:33;;;;;;;6.40;5.80;;;15.90;83.10;;;;;;3902649;30;20063;-68
2023/03/19 06:23:15;;;;;;;5.93;5.47;;;15.90;83.10;;;;;;3902322;30;20715;-67
2023/03/19 06:25:56;;;;;;;6.03;5.40;;;15.90;83.10;;;;;;3898821;30;20193;-68
2023/03/19 06:28:39;;;;;;;7.40;5.80;;;15.90;83.10;;;;;;3916543;30;20110;-68
2023/03/19 06:31:21;;;;;;;6.30;5.70;;;15.90;83.10;;;;;;3912943;30;20060;-67
2023/03/19 06:34:06;;;;;;;5.72;5.30;;;15.90;83.10;;;;;;3914780;30;20195;-66
2023/03/19 06:36:54;;;;;;;6.13;5.53;;;15.90;83.10;;;;;;3901678;30;20059;-68
2023/03/19 06:39:35;;;;;;;;;;;15.90;83.50;;;;;;3927895;30;20067;-67
2023/03/19 06:42:16;;;;;;;6.28;5.78;;;15.90;83.50;;;;;;3916886;30;19933;-70
2023/03/19 06:44:57;;;;;;;5.88;5.30;;;15.90;84.00;;;;;;3910056;30;20133;-71
2023/03/19 06:47:40;;;;;;;5.35;4.90;;;15.90;83.60;;;;;;3928198;30;20063;-71
2023/03/19 06:50:22;;;;;;;5.45;4.95;;;15.90;83.50;;;;;;3927782;30;21417;-70
2023/03/19 06:53:03;;;;;;;5.10;4.70;;;15.90;83.40;;;;;;3926670;30;20186;-70
2023/03/19 06:55:46;;;;;;;5.05;4.65;;;15.90;84.40;;;;;;3927874;30;20151;-68
2023/03/19 06:58:27;;;;;;;4.93;4.43;;;15.90;83.50;;;;;;3912789;30;20056;-69
2023/03/19 07:01:08;;;;;;;;;;;15.90;83.60;;;;;;3902361;30;20611;-69
2023/03/19 07:03:50;;;;;;;4.20;3.90;;;15.90;83.50;;;;;;3907575;30;19938;-68
2023/03/19 07:06:33;;;;;;;4.30;4.00;;;15.90;83.90;;;;;;3902297;30;20134;-68
2023/03/19 07:09:14;;;;;;;4.40;4.00;;;15.90;83.80;;;;;;3912806;30;20059;-68
2023/03/19 07:11:54;;;;;;;4.90;4.22;;;15.90;83.80;;;;;;3907653;30;20068;-69
2023/03/19 07:14:35;;;;;;;6.03;4.60;;;15.90;83.80;;;;;;3919319;30;20137;-69
2023/03/19 07:17:16;;;;;;;5.05;4.65;;;15.90;83.90;;;;;;3927684;30;20122;-68
2023/03/19 07:19:57;;;;;;;5.07;4.57;;;15.90;84.00;;;;;;3927223;30;20063;-68
2023/03/19 07:22:40;;;;;;;4.95;4.50;;;15.90;85.20;;;;;;3922882;30;20087;-69
2023/03/19 07:25:20;;;;;;;4.25;3.67;;;15.90;84.30;;;;;;3923953;30;20154;-68
2023/03/19 07:28:01;;;;;;;5.25;3.90;;;16.00;84.70;;;;;;3927191;30;20059;-70
2023/03/19 07:30:42;;;;;;;5.40;4.07;;;16.00;84.60;;;;;;3916203;30;20058;-68
2023/03/19 07:33:23;;;;;;;4.43;4.13;;;16.10;84.10;;;;;;3925065;30;20607;-68
2023/03/19 07:36:05;;;;;;;6.45;4.20;;;16.20;83.10;;;;;;3908960;30;20055;-69
2023/03/19 07:38:47;;;;;;;4.63;4.22;;;16.30;82.40;;;;;;3917022;30;20485;-68
2023/03/19 07:41:28;;;;;;;4.63;4.22;;;16.40;81.70;;;;;;3913800;30;20066;-68
2023/03/19 07:44:09;;;;;;;14.13;4.25;;;16.50;81.20;;;;;;3931737;30;20074;-69
2023/03/19 07:46:50;;;;;;;4.35;4.00;;;16.50;80.70;;;;;;3927843;30;20063;-68
2023/03/19 07:49:31;;;;;;;5.32;4.95;;;16.60;80.30;;;;;;3934749;30;20545;-68
2023/03/19 07:52:13;;;;;;;5.20;4.80;;;16.50;79.70;;;;;;3928096;30;20524;-68
2023/03/19 07:54:55;;;;;;;7.10;4.40;;;16.60;79.50;;;;;;3928304;30;20063;-68
2023/03/19 07:57:36;;;;;;;4.85;4.45;;;16.70;79.20;;;;;;3927493;30;20071;-68
2023/03/19 08:00:18;;;;;;;6.20;5.60;;;16.70;78.90;;;;;;3925940;30;20067;-69
2023/03/19 08:02:59;;;;;;;6.45;5.60;;;16.70;78.70;;;;;;3929339;30;20087;-68
2023/03/19 08:05:39;;;;;;;6.30;5.70;;;16.70;78.40;;;;;;3924726;30;20067;-68
2023/03/19 08:08:20;;;;;;;6.15;5.55;;;16.80;78.30;;;;;;3908935;30;20586;-69
2023/03/19 08:11:03;;;;;;;6.97;5.95;;;16.80;78.00;;;;;;3925527;30;20113;-69
2023/03/19 08:13:44;;;;;;;7.32;6.63;;;16.80;78.00;;;;;;3926584;30;20071;-69
2023/03/19 08:16:25;;;;;;;8.45;6.50;;;16.80;77.90;;;;;;3933535;30;20055;-69
2023/03/19 08:19:07;;;;;;;10.13;4.82;;;16.80;77.60;;;;;;3915205;30;20099;-68
2023/03/19 08:21:48;;;;;;;8.38;7.50;;;16.80;77.50;;;;;;3931785;30;20082;-69
2023/03/19 08:24:29;;;;;;;6.88;6.22;;;16.80;77.30;;;;;;3934446;30;20133;-69
2023/03/19 08:27:11;;;;;;;10.05;5.20;;;16.80;78.00;;;;;;3924505;30;20084;-69
2023/03/19 08:29:52;;;;;;;7.47;6.55;;;16.70;77.10;;;;;;3922745;30;20063;-69
2023/03/19 08:32:33;;;;;;;5.82;4.47;;;16.70;77.00;;;;;;3932176;30;20055;-69
2023/03/19 08:35:14;;;;;;;6.13;5.40;;;16.70;77.00;;;;;;3925818;30;20063;-69
2023/03/19 08:37:56;;;;;;;7.88;7.18;;;16.70;77.00;;;;;;3931475;30;20111;-69
2023/03/19 08:40:37;;;;;;;8.93;6.28;;;16.70;77.00;;;;;;3924650;30;20067;-68
2023/03/19 08:43:19;;;;;;;10.05;5.75;;;16.70;76.90;;;;;;3928245;30;20139;-69
2023/03/19 08:46:00;;;;;;;7.65;6.88;;;16.70;76.90;;;;;;3932033;30;20249;-69
2023/03/19 08:48:41;;;;;;;8.85;6.88;;;16.70;77.70;;;;;;3931545;30;20405;-69
2023/03/19 08:51:24;;;;;;;7.78;7.03;;;16.70;76.70;;;;;;3936143;30;20062;-69
2023/03/19 08:54:05;;;;;;;6.97;6.38;;;16.60;76.50;;;;;;3924256;30;20047;-69
2023/03/19 08:56:47;;;;;;;7.90;7.20;;;16.60;76.60;;;;;;3935026;30;20129;-69
2023/03/19 08:59:29;;;;;;;6.22;5.63;;;16.60;76.60;;;;;;3941209;30;20059;-70
2023/03/19 09:02:13;;;;;;;8.77;5.43;;;16.60;76.50;;;;;;3937195;30;20087;-68
2023/03/19 09:04:55;;;;;;;6.45;3.70;;;16.60;76.50;;;;;;3926930;30;20062;-68
2023/03/19 09:07:35;;;;;;;8.80;7.55;;;16.60;76.40;;;;;;3924605;30;20058;-68
2023/03/19 09:10:16;;;;;;;7.40;6.43;;;16.60;76.30;;;;;;3927379;30;20205;-69
2023/03/19 09:12:57;;;;;;;7.45;6.75;;;16.60;76.30;;;;;;3927129;30;20163;-67
2023/03/19 09:15:40;;;;;;;5.80;5.30;;;16.60;76.20;;;;;;3926411;30;20067;-68
2023/03/19 09:18:22;;;;;;;5.60;4.03;;;16.50;76.10;;;;;;3937926;30;20071;-68
2023/03/19 09:21:04;;;;;;;5.95;5.43;;;16.50;76.00;;;;;;3929002;30;20155;-69
2023/03/19 09:23:45;;;;;;;5.90;5.20;;;16.50;76.00;;;;;;3934332;30;20108;-68
2023/03/19 09:26:29;;;;;;;6.85;6.25;;;16.50;75.90;;;;;;3926556;30;20632;-68
2023/03/19 09:29:10;;;;;;;7.93;6.05;;;16.50;75.90;;;;;;3929030;30;20071;-68
2023/03/19 09:31:52;;;;;;;6.00;5.50;;;16.50;75.90;;;;;;3934789;30;20083;-68
2023/03/19 09:34:33;;;;;;;6.95;5.85;;;16.40;75.90;;;;;;3940738;30;20062;-68
2023/03/19 09:37:14;;;;;;;6.60;6.00;;;16.40;76.10;;;;;;3938023;30;20467;-68
2023/03/19 09:39:55;;;;;;;7.10;6.40;;;16.40;76.30;;;;;;3919323;30;20058;-68
2023/03/19 09:42:55;;;;;;;8.00;5.63;;;16.40;76.30;;;;;;3928165;30;20077;-68
2023/03/19 09:45:36;;;;;;;7.55;6.85;;;16.40;76.20;;;;;;3913209;30;20167;-68
2023/03/19 09:48:27;;;;;;;7.97;5.68;;;16.40;76.20;;;;;;3936796;30;20266;-68
2023/03/19 09:51:18;;;;;;;5.60;4.90;;;16.40;76.20;;;;;;3924826;30;20144;-68
2023/03/19 09:54:04;;;;;;;4.53;3.83;;;16.40;76.00;;;;;;3936950;30;20538;-68
2023/03/19 09:56:45;;;;;;;4.72;4.22;;;16.50;75.90;;;;;;3911784;30;20050;-68
2023/03/19 09:59:28;;;;;;;5.63;4.40;;;16.50;75.80;;;;;;3926681;30;20137;-68
2023/03/19 10:02:31;;;;;;;5.35;4.80;;;16.60;75.40;;;;;;3934625;30;20496;-68
2023/03/19 10:05:27;;;;;;;5.97;5.38;;;16.90;74.50;;;;;;3924221;30;20133;-68
2023/03/19 10:08:32;;;;;;;3.70;3.40;;;17.20;72.80;;;;;;3904270;30;20082;-68
2023/03/19 10:11:29;;;;;;;4.53;3.78;;;17.60;71.00;;;;;;3917599;30;20119;-68
2023/03/19 10:14:29;;;;;;;5.63;5.05;;;18.00;69.20;;;;;;3924446;30;20067;-68
2023/03/19 10:17:16;;;;;;;5.30;4.85;;;18.40;67.50;;;;;;3902536;30;20511;-68
2023/03/19 10:20:01;;;;;;;5.53;4.70;;;18.70;66.20;;;;;;3931298;30;20058;-69
2023/03/19 10:22:47;;;;;;;5.88;5.25;;;18.90;65.40;;;;;;3916805;30;20145;-68
2023/03/19 10:25:32;;;;;;;5.38;4.88;;;19.10;64.80;;;;;;3912082;30;20059;-67
2023/03/19 10:28:17;;;;;;;5.88;4.63;;;19.20;64.10;;;;;;3917040;30;20055;-67
2023/03/19 10:31:11;;;;;;;6.45;4.93;;;19.30;63.70;;;;;;3935158;30;20085;-68
2023/03/19 10:34:01;;;;;;;5.28;4.78;;;19.30;63.50;;;;;;3939347;30;20059;-68
2023/03/19 10:36:42;;;;;;;5.03;4.30;;;19.30;63.70;;;;;;3934401;30;20423;-68
2023/03/19 10:39:25;;;;;;;5.32;4.82;;;19.30;63.60;;;;;;3934985;30;20066;-67
2023/03/19 10:42:31;;;;;;;5.38;4.90;;;19.30;63.50;;;;;;3936830;30;20125;-68
2023/03/19 10:45:21;;;;;;;6.22;5.32;;;19.30;63.40;;;;;;3929683;30;20536;-67
2023/03/19 10:48:04;;;;;;;5.70;5.20;;;19.30;64.20;;;;;;3926645;30;20118;-67
2023/03/19 10:50:50;;;;;;;7.05;5.57;;;19.30;63.40;;;;;;3932637;30;20420;-68
2023/03/19 10:53:33;;;;;;;6.28;5.78;;;19.20;63.50;;;;;;3930519;30;20062;-69
2023/03/19 10:56:21;;;;;;;5.47;4.97;;;19.20;63.70;;;;;;3914005;30;20067;-68
2023/03/19 10:59:04;;;;;;;5.20;4.80;;;19.20;63.60;;;;;;3927356;30;20196;-68
2023/03/19 11:01:46;;;;;;;5.57;5.07;;;19.20;63.70;;;;;;3922532;30;20062;-69
2023/03/19 11:04:28;;;;;;;6.15;5.00;;;19.10;63.60;;;;;;3933306;30;20085;-67
2023/03/19 11:07:12;;;;;;;5.72;5.22;;;19.10;63.70;;;;;;3924750;30;20129;-69
2023/03/19 11:09:56;;;;;;;6.20;5.10;;;19.00;63.90;;;;;;3936011;30;20063;-68
2023/03/19 11:12:38;;;;;;;5.93;5.40;;;19.00;64.20;;;;;;3933676;30;20059;-68
2023/03/19 11:15:22;;;;;;;5.10;4.57;;;18.90;64.40;;;;;;3924758;30;20136;-68
2023/03/19 11:18:08;;;;;;;6.28;5.72;;;18.90;64.40;;;;;;3925012;30;20063;-69
2023/03/19 11:20:54;;;;;;;5.40;4.95;;;19.00;64.30;;;;;;3927544;30;20055;-68
2023/03/19 11:23:39;;;;;;;5.55;4.57;;;19.10;64.20;;;;;;3934191;30;20078;-68
2023/03/19 11:26:23;;;;;;;5.88;5.28;;;19.10;63.90;;;;;;3929176;30;20055;-68
2023/03/19 11:29:06;;;;;;;6.35;4.72;;;19.20;63.70;;;;;;3929682;30;20152;-67
2023/03/19 11:31:56;;;;;;;4.80;4.43;;;19.30;63.30;;;;;;3937066;30;20059;-69
2023/03/19 11:34:45;;;;;;;4.75;4.32;;;19.30;63.10;;;;;;3922213;30;20522;-70
2023/03/19 11:37:33;;;;;;;5.90;5.30;;;19.40;63.10;;;;;;3937864;30;20388;-69
2023/03/19 11:40:30;;;;;;;8.15;5.38;;;19.40;62.70;;;;;;3939359;30;20126;-69
2023/03/19 11:43:31;;;;;;;6.28;5.78;;;19.50;62.60;;;;;;3934225;30;20626;-69
2023/03/19 11:46:34;;;;;;;6.95;6.35;;;19.50;63.20;;;;;;3924192;30;20063;-70
2023/03/19 11:49:42;;;;;;;6.10;5.50;;;19.50;63.20;;;;;;3920739;30;20059;-70
2023/03/19 11:52:28;;;;;;;6.20;5.70;;;19.40;63.40;;;;;;3926191;30;20189;-70
2023/03/19 11:55:20;;;;;;;6.82;5.88;;;19.30;63.50;;;;;;3928403;30;20636;-69
2023/03/19 11:58:22;;;;;;;7.85;7.15;;;19.20;63.70;;;;;;3933235;30;20098;-70
2023/03/19 12:01:06;;;;;;;;;;;19.10;64.00;;;;;;3928792;30;20060;-70
2023/03/19 12:04:10;;;;;;;7.90;7.13;;;19.10;64.30;;;;;;3921839;30;19937;-70
2023/03/19 12:07:01;;;;;;;7.47;6.68;;;19.00;64.40;;;;;;3931734;30;20091;-70
2023/03/19 12:09:52;;;;;;;8.52;6.85;;;19.00;64.60;;;;;;3938976;30;20503;-70
2023/03/19 12:12:40;;;;;;;6.88;6.07;;;19.00;65.00;;;;;;3938413;30;20140;-69
2023/03/19 12:15:29;;;;;;;6.78;5.68;;;19.00;65.20;;;;;;3925867;30;20086;-70
2023/03/19 12:18:20;;;;;;;7.78;6.65;;;19.00;65.30;;;;;;3922000;30;20062;-70
2023/03/19 12:21:11;;;;;;;8.05;6.70;;;19.00;66.00;;;;;;3936402;30;20637;-70
2023/03/19 12:24:03;;;;;;;6.37;5.77;;;19.00;65.20;;;;;;3934068;30;20063;-69
2023/03/19 12:26:56;;;;;;;5.65;4.65;;;19.00;65.10;;;;;;3927281;30;20293;-69
2023/03/19 12:29:44;;;;;;;7.10;6.47;;;19.10;65.10;;;;;;3938588;30;20085;-69
2023/03/19 12:32:37;;;;;;;6.25;4.65;;;19.10;65.00;;;;;;3934705;30;20066;-68
2023/03/19 12:35:23;;;;;;;7.47;6.45;;;19.10;65.30;;;;;;3927930;30;20059;-69
2023/03/19 12:38:12;;;;;;;10.25;5.47;;;19.10;65.70;;;;;;3910901;30;20059;-70
2023/03/19 12:40:59;;;;;;;8.75;6.18;;;19.10;66.20;;;;;;3918978;30;20110;-70
2023/03/19 12:43:49;;;;;;;7.22;6.38;;;19.10;66.90;;;;;;3903416;30;20059;-69
2023/03/19 12:46:33;;;;;;;8.15;7.45;;;19.20;65.60;;;;;;3912979;30;20513;-69
2023/03/19 12:49:17;;;;;;;7.60;6.90;;;19.20;65.50;;;;;;3919460;30;20232;-69
2023/03/19 12:52:03;;;;;;;7.85;6.45;;;19.30;65.50;;;;;;3928931;30;20085;-69
2023/03/19 12:54:50;;;;;;;7.22;6.53;;;19.30;65.40;;;;;;3917881;30;20133;-71
2023/03/19 12:57:37;;;;;;;7.28;6.10;;;19.30;65.20;;;;;;3929161;30;20063;-71
2023/03/19 13:00:26;;;;;;;7.93;7.05;;;19.40;65.10;;;;;;3929207;30;20117;-70
2023/03/19 13:03:13;;;;;;;3.53;1.92;;;19.40;64.90;;;;;;3913096;30;20060;-70
2023/03/19 13:06:00;;;;;;;8.13;5.10;;;19.40;65.00;;;;;;3908001;30;20759;-71
2023/03/19 13:08:45;;;;;;;8.68;6.72;;;19.40;65.00;;;;;;3914344;30;20082;-70
2023/03/19 13:11:37;;;;;;;9.30;7.50;;;19.40;64.90;;;;;;3902950;30;20059;-70
2023/03/19 13:14:22;;;;;;;;;;;19.40;64.90;;;;;;3911331;30;20056;-68
2023/03/19 13:17:15;;;;;;;8.43;6.38;;;19.40;65.20;;;;;;3916526;30;19941;-70
2023/03/19 13:19:58;;;;;;;8.43;7.45;;;19.30;65.30;;;;;;3917655;30;20527;-70
2023/03/19 13:22:50;;;;;;;10.48;6.97;;;19.30;65.40;;;;;;3928678;30;20067;-69
2023/03/19 13:25:35;;;;;;;9.00;8.10;;;19.20;65.60;;;;;;3926603;30;20198;-69
2023/03/19 13:28:27;;;;;;;7.40;6.30;;;19.20;65.70;;;;;;3916686;30;20059;-70
2023/03/19 13:31:19;;;;;;;11.02;8.07;;;19.20;65.70;;;;;;3927685;30;20062;-69
2023/03/19 13:34:04;;;;;;;11.52;9.60;;;19.20;65.70;;;;;;3914406;30;20071;-70
2023/03/19 13:36:47;;;;;;;9.68;7.43;;;19.20;65.60;;;;;;3914089;30;20063;-69
2023/03/19 13:39:31;;;;;;;10.25;9.32;;;19.20;65.90;;;;;;3901090;30;20052;-70
2023/03/19 13:42:36;;;;;;;9.02;7.53;;;19.20;65.70;;;;;;3903301;30;20071;-69
2023/03/19 13:45:31;;;;;;;9.82;8.68;;;19.30;65.80;;;;;;3910356;30;20059;-69
2023/03/19 13:48:36;;;;;;;11.30;8.93;;;19.30;65.80;;;;;;3913183;30;20073;-69
2023/03/19 13:51:28;;;;;;;12.23;8.95;;;19.20;65.60;;;;;;3902767;30;20058;-69
2023/03/19 13:54:18;;;;;;;9.30;7.75;;;19.20;65.80;;;;;;3914099;30;20114;-69
2023/03/19 13:57:16;;;;;;;14.23;9.77;;;19.10;66.00;;;;;;3908415;30;20505;-70
2023/03/19 14:00:20;;;;;;;10.70;9.43;;;19.20;66.10;;;;;;3913969;30;20627;-69
2023/03/19 14:03:02;;;;;;;11.63;10.32;;;19.20;66.00;;;;;;3913686;30;20417;-69
2023/03/19 14:05:44;;;;;;;11.32;10.13;;;19.30;65.90;;;;;;3902855;30;20060;-69
2023/03/19 14:08:27;;;;;;;9.05;8.15;;;19.30;65.80;;;;;;3911193;30;20194;-70
2023/03/19 14:11:08;;;;;;;9.30;7.95;;;19.30;66.50;;;;;;3875355;30;20150;-70
2023/03/19 14:13:49;;;;;;;;;;;19.30;65.40;;;;;;3906646;30;20055;-67
2023/03/19 14:16:34;;;;;;;12.57;9.60;;;19.20;65.50;;;;;;3913608;30;20299;-70
2023/03/19 14:19:19;;;;;;;12.80;9.80;;;19.20;65.50;;;;;;3902122;30;20110;-70